Terminal Aerodrome Forecast
Issued by NWS

Home | Current Version | Previous Version | Text Only | Print | Product List | Glossary On
Versions: 1 2 3 4 5 6 7 8 9 10 11 12 13 14 15 16 17 18 19 20 21 22 23 24 25 26 27 28 29
311
FTUS41 KBGM 271732
TAFITH
TAF
KITH 271732Z 2718/2818 20007KT P6SM BKN022
     FM272000 VRB03KT P6SM BKN035
     FM280600 VRB03KT 5SM BR BKN015
      TEMPO 2809/2812 1/2SM FG OVC008
     FM281400 00000KT P6SM OVC018
     FM281600 00000KT P6SM -SHRA OVC015=

USA.gov is the U.S. government's official web portal to all federal, state and local government web resources and services.